Details From SCEL - Arturo Merino Benitez Intl
To SCVD - Pichoy
Flight Number -
Tags decoded
Created
Modified
Stats Distance 394 nm / 730 km
Max Altitude 0 ft / 0 m
Waypoints 6
Social Downloads 0
Likes 0
Share VATSIM

Download

Looking for another format? Having issues loading an existing format? Contact us
Advertisement - Login to hide

Notes

Requested: SCEL DESIT LINER ICO MAULE SCVD

Route

SCEL DESIT LINER ICO MAULE SCVD

ID Type Via Altitude Latitude Longitude Leg Dist Tot Dist Heading (true) Name
O SCEL APT - 0 ft / 0 m -33.38978˚ -70.79437˚ - 0 nm - Arturo Merino Benitez Intl
DESIT FIX - 0 ft / 0 m -33.53663˚ -70.77951˚ 8 nm 8 nm 175° / 175° -
LINER FIX - 0 ft / 0 m -33.92556˚ -70.75222˚ 23 nm 32 nm 177° / 177° -
ICO VOR - 0 ft / 0 m -34.96778˚ -71.21583˚ 66 nm 98 nm 200° / 200° CURICO VOR-DME
MAULE FIX - 0 ft / 0 m -35.41929˚ -71.44170˚ 29 nm 128 nm 202° / 202° -
O SCVD APT - 0 ft / 0 m -39.64996˚ -73.08611˚ 265 nm 394 nm 197° / 198° Pichoy

Altitude Profile

Advertisement - Login to hide

Weather


0- 5 10 15 20 25 30 35+ Temperature / ° C

Clouds and Precipitation
Forecast for 2017-12-18 18:00 UTC. Updated an hour ago

Ground ~20,000 ft ~40,000 ft Winds

SCEL

Details ICAO SCEL (SCL)
Name Arturo Merino Benitez Intl
Region Chile
Timezone America/Santiago (UTC-3.0)
Stats Elevation 1,550 ft / 472 m (AMSL)
Location -33.389775° -70.794366°
Runways 2
Magnetic Variation 1.800° E

METAR

SCEL 181600Z 20014KT 180V240 CAVOK 27/07 Q1014 NOSIG

Decode

TAF

TAF SCEL 181004Z 1812/1912 15004KT 8000 NSC TX29/1819Z TN14/1910Z BECMG 1814/1816 18010KT 9999 SCT180 BKN220 BECMG 1818/1820 22015KT BECMG 1901/1903 15004KT 8000 NSC TEMPO 1908/1912 5000 HZ

Decode

Departure Runways

ID Width Length Bearing (true) Bearing (mag) Surface Threshold Offset Overrun Length
17L 180 ft / 55 m 10,523 ft / 3,207 m 177.43° 175.63° Asphalt 0 ft / 0 m 0 ft / 0 m
17R 148 ft / 45 m 12,504 ft / 3,811 m 177.44° 175.64° Asphalt 0 ft / 0 m 0 ft / 0 m
35L 148 ft / 45 m 12,504 ft / 3,811 m 357.44° 355.64° Asphalt 0 ft / 0 m 0 ft / 0 m
35R 180 ft / 55 m 10,523 ft / 3,207 m 357.43° 355.63° Asphalt 1,800 ft / 549 m 0 ft / 0 m

SCVD

Details ICAO SCVD (ZAL)
Name Pichoy
Region Chile
Timezone America/Santiago (UTC-3.0)
Stats Elevation 59 ft / 18 m (AMSL)
Location -39.649955° -73.086111°
Runways 1
Magnetic Variation 7.450° E

METAR

SCVD 181600Z 14005KT 040V210 CAVOK 19/07 Q1017

Decode

TAF

TAF TAF SCVD 181031Z 1812/1824 21007KT CAVOK TN10/1812Z TX21/1819Z

Decode

Destination Runways

ID Width Length Bearing (true) Bearing (mag) Surface Threshold Offset Overrun Length
17 148 ft / 45 m 6,876 ft / 2,096 m 178.00° 170.55° Asphalt 0 ft / 0 m 240 ft / 73 m
35 148 ft / 45 m 6,876 ft / 2,096 m 358.00° 350.55° Asphalt 0 ft / 0 m 374 ft / 114 m

Popular Alternatives